Time;durP1;ratioP1;P1;durP2;ratioP2;P2;SDS_P1;SDS_P2;PMS_P1;PMS_P2;Temp;Humidity;BMP_temperature;BMP_pressure;BME280_temperature;BME280_humidity;BME280_pressure;Samples;Min_cycle;Max_cycle;Signal;HPM_P1;HPM_P2
2024/04/05 00:02:01;;;;;;;2.40;0.50;;;;;;;;;;6046528;23;20259;-86
2024/04/05 00:04:29;;;;;;;2.00;0.57;;;;;;;;;;6070973;23;20173;-85
2024/04/05 00:06:58;;;;;;;1.20;0.50;;;;;;;;;;6047220;23;20742;-86
2024/04/05 00:09:26;;;;;;;1.10;0.70;;;;;;;;;;6046550;23;20640;-86
2024/04/05 00:11:52;;;;;;;0.83;0.50;;;;;;;;;;6023222;23;20201;-86
2024/04/05 00:14:21;;;;;;;1.00;0.60;;;;;;;;;;6047872;23;20683;-86
2024/04/05 00:16:48;;;;;;;0.67;0.40;;;;;;;;;;6046820;23;20167;-86
2024/04/05 00:19:15;;;;;;;0.70;0.70;;;;;;;;;;6046600;23;20253;-86
2024/04/05 00:21:41;;;;;;;0.83;0.40;;;;;;;;;;6046399;23;20185;-86
2024/04/05 00:24:08;;;;;;;0.40;0.40;;;;;;;;;;6047239;23;20228;-86
2024/04/05 00:26:35;;;;;;;0.90;0.50;;;;;;;;;;6070473;23;20172;-86
2024/04/05 00:29:04;;;;;;;0.67;0.40;;;;;;;;;;6046634;23;20271;-86
2024/04/05 00:31:34;;;;;;;1.17;0.50;;;;;;;;;;6071884;23;20180;-86
2024/04/05 00:34:03;;;;;;;0.77;0.50;;;;;;;;;;6047386;23;20168;-87
2024/04/05 00:36:30;;;;;;;0.53;0.40;;;;;;;;;;6018567;23;20209;-86
2024/04/05 00:38:56;;;;;;;0.87;0.50;;;;;;;;;;6065905;23;20180;-86
2024/04/05 00:41:22;;;;;;;0.70;0.50;;;;;;;;;;6017916;23;20173;-85
2024/04/05 00:43:48;;;;;;;0.60;0.50;;;;;;;;;;6042008;23;20252;-86
2024/04/05 00:46:22;;;;;;;1.53;0.60;;;;;;;;;;6017916;23;20651;-87
2024/04/05 00:48:50;;;;;;;1.47;0.50;;;;;;;;;;6041364;23;20215;-86
2024/04/05 00:51:17;;;;;;;0.83;0.70;;;;;;;;;;6017662;23;20169;-87
2024/04/05 00:53:44;;;;;;;1.97;0.40;;;;;;;;;;6041889;23;20183;-87
2024/04/05 00:56:11;;;;;;;0.87;0.60;;;;;;;;;;6041577;23;20586;-87
2024/04/05 00:58:38;;;;;;;1.20;0.50;;;;;;;;;;6018504;23;20196;-86
2024/04/05 01:01:05;;;;;;;3.03;0.40;;;;;;;;;;6041645;23;20172;-86
2024/04/05 01:03:32;;;;;;;0.73;0.40;;;;;;;;;;6018459;23;20174;-85
2024/04/05 01:05:59;;;;;;;1.37;0.40;;;;;;;;;;6018216;23;20578;-86
2024/04/05 01:08:25;;;;;;;0.67;0.47;;;;;;;;;;6041202;23;20673;-86
2024/04/05 01:10:52;;;;;;;0.43;0.40;;;;;;;;;;6017379;23;20172;-87
2024/04/05 01:13:18;;;;;;;0.30;0.30;;;;;;;;;;6017568;23;20177;-86
2024/04/05 01:15:44;;;;;;;0.50;0.37;;;;;;;;;;6017541;23;20191;-87
2024/04/05 01:18:10;;;;;;;0.20;0.20;;;;;;;;;;6041397;23;20752;-86
2024/04/05 01:20:37;;;;;;;0.20;0.20;;;;;;;;;;6064860;23;20692;-85
2024/04/05 01:23:04;;;;;;;0.77;0.30;;;;;;;;;;6018128;23;20173;-86
2024/04/05 01:25:34;;;;;;;1.10;0.20;;;;;;;;;;6041616;23;20182;-85
2024/04/05 01:28:02;;;;;;;0.40;0.30;;;;;;;;;;6064981;23;20213;-87
2024/04/05 01:30:28;;;;;;;0.40;0.40;;;;;;;;;;6041293;23;20248;-86
2024/04/05 01:32:58;;;;;;;0.40;0.30;;;;;;;;;;6065294;23;20347;-86
2024/04/05 01:35:24;;;;;;;0.30;0.27;;;;;;;;;;6040999;23;20165;-87
2024/04/05 01:37:51;;;;;;;0.67;0.30;;;;;;;;;;6040887;23;20288;-86
2024/04/05 01:40:17;;;;;;;1.20;0.30;;;;;;;;;;6064831;23;20177;-86
2024/04/05 01:42:43;;;;;;;0.40;0.20;;;;;;;;;;6017500;23;20240;-86
2024/04/05 01:45:09;;;;;;;1.07;0.30;;;;;;;;;;6065199;23;20615;-86
2024/04/05 01:47:38;;;;;;;0.40;0.30;;;;;;;;;;6017665;23;20253;-86
2024/04/05 01:50:05;;;;;;;0.73;0.40;;;;;;;;;;6064971;23;20200;-86
2024/04/05 01:52:32;;;;;;;0.67;0.40;;;;;;;;;;6017514;23;20174;-86
2024/04/05 01:55:03;;;;;;;0.97;0.40;;;;;;;;;;6041313;23;20190;-86
2024/04/05 01:57:29;;;;;;;0.30;0.30;;;;;;;;;;6041360;23;20243;-86
2024/04/05 01:59:58;;;;;;;1.10;0.50;;;;;;;;;;6017689;23;20775;-86
2024/04/05 02:02:24;;;;;;;0.53;0.30;;;;;;;;;;6040957;23;20174;-86
2024/04/05 02:04:53;;;;;;;0.40;0.40;;;;;;;;;;6064536;23;20250;-85
2024/04/05 02:07:22;;;;;;;0.80;0.40;;;;;;;;;;6017738;23;20622;-86
2024/04/05 02:09:50;;;;;;;1.17;0.60;;;;;;;;;;6041234;23;20290;-86
2024/04/05 02:12:19;;;;;;;1.10;0.50;;;;;;;;;;6065048;23;20202;-86
2024/04/05 02:14:45;;;;;;;0.60;0.50;;;;;;;;;;6065099;23;20234;-85
2024/04/05 02:17:11;;;;;;;0.50;0.50;;;;;;;;;;6066466;23;20175;-86
2024/04/05 02:19:37;;;;;;;0.50;0.40;;;;;;;;;;6042960;23;20515;-86
2024/04/05 02:22:05;;;;;;;0.90;0.50;;;;;;;;;;6091033;23;20637;-86
2024/04/05 02:24:35;;;;;;;0.70;0.50;;;;;;;;;;6042951;23;20179;-86
2024/04/05 02:27:02;;;;;;;0.40;0.40;;;;;;;;;;6066315;23;20170;-86
2024/04/05 02:29:28;;;;;;;0.50;0.40;;;;;;;;;;6019568;23;20270;-87
2024/04/05 02:31:54;;;;;;;1.17;0.60;;;;;;;;;;6043043;23;20175;-86
2024/04/05 02:34:21;;;;;;;0.60;0.60;;;;;;;;;;6043008;23;20642;-87
2024/04/05 02:36:50;;;;;;;0.57;0.50;;;;;;;;;;6019127;23;20202;-87
2024/04/05 02:39:18;;;;;;;0.80;0.50;;;;;;;;;;6019453;23;20177;-86
2024/04/05 02:41:45;;;;;;;0.80;0.60;;;;;;;;;;5995749;23;20237;-87
2024/04/05 02:44:14;;;;;;;1.50;0.53;;;;;;;;;;6019603;23;20178;-86
2024/04/05 02:46:48;;;;;;;0.80;0.60;;;;;;;;;;6018849;23;20168;-88
2024/04/05 02:49:22;;;;;;;1.03;0.60;;;;;;;;;;5997111;23;20283;-86
2024/04/05 02:51:49;;;;;;;0.53;0.40;;;;;;;;;;6019416;23;20167;-86
2024/04/05 02:54:16;;;;;;;0.63;0.40;;;;;;;;;;6042525;23;20219;-86
2024/04/05 02:56:43;;;;;;;1.17;0.50;;;;;;;;;;6042687;23;20180;-86
2024/04/05 02:59:10;;;;;;;0.80;0.57;;;;;;;;;;5996042;23;20246;-86
2024/04/05 03:01:38;;;;;;;0.57;0.40;;;;;;;;;;6019246;23;20618;-86
2024/04/05 03:04:04;;;;;;;0.67;0.60;;;;;;;;;;5995718;23;20169;-87
2024/04/05 03:06:33;;;;;;;0.57;0.57;;;;;;;;;;6019023;23;20189;-86
2024/04/05 03:08:59;;;;;;;0.77;0.60;;;;;;;;;;6019521;23;20197;-86
2024/04/05 03:11:28;;;;;;;0.67;0.60;;;;;;;;;;6018852;23;20181;-87
2024/04/05 03:13:57;;;;;;;0.80;0.60;;;;;;;;;;6043094;23;20176;-87
2024/04/05 03:16:24;;;;;;;0.77;0.40;;;;;;;;;;6018899;23;20177;-88
2024/04/05 03:18:50;;;;;;;0.70;0.60;;;;;;;;;;6043330;23;20177;-87
2024/04/05 03:21:16;;;;;;;2.90;0.60;;;;;;;;;;6042559;23;20252;-87
2024/04/05 03:23:44;;;;;;;1.83;0.67;;;;;;;;;;5995913;23;20196;-87
2024/04/05 03:26:10;;;;;;;0.97;0.57;;;;;;;;;;6042686;23;20165;-88
2024/04/05 03:28:36;;;;;;;1.07;0.70;;;;;;;;;;5995469;23;20233;-87
2024/04/05 03:31:03;;;;;;;0.40;0.40;;;;;;;;;;5995711;23;20269;-87
2024/04/05 03:33:31;;;;;;;0.80;0.50;;;;;;;;;;6042924;23;20905;-88
2024/04/05 03:36:04;;;;;;;2.07;0.83;;;;;;;;;;6017847;23;20169;-86
2024/04/05 03:38:31;;;;;;;1.20;0.67;;;;;;;;;;6042963;23;20189;-86
2024/04/05 03:41:00;;;;;;;1.20;0.70;;;;;;;;;;6019573;23;20489;-86
2024/04/05 03:43:26;;;;;;;0.80;0.60;;;;;;;;;;6043009;23;20272;-86
2024/04/05 03:45:52;;;;;;;0.77;0.57;;;;;;;;;;6042438;23;20173;-87
2024/04/05 03:48:19;;;;;;;1.13;0.60;;;;;;;;;;6042742;23;20299;-88
2024/04/05 03:50:46;;;;;;;0.90;0.60;;;;;;;;;;6066488;23;20172;-87
2024/04/05 03:53:13;;;;;;;0.53;0.50;;;;;;;;;;6042679;23;20204;-87
2024/04/05 03:55:42;;;;;;;0.83;0.73;;;;;;;;;;6043440;23;20255;-87
2024/04/05 03:58:08;;;;;;;1.90;0.70;;;;;;;;;;6019152;23;20264;-87
2024/04/05 04:00:34;;;;;;;0.80;0.60;;;;;;;;;;6042810;23;20563;-88
2024/04/05 04:03:01;;;;;;;0.63;0.63;;;;;;;;;;6066401;23;20224;-86
2024/04/05 04:05:27;;;;;;;1.07;0.70;;;;;;;;;;6042604;23;20220;-87
2024/04/05 04:07:53;;;;;;;0.83;0.60;;;;;;;;;;6066205;23;20173;-88
2024/04/05 04:10:20;;;;;;;1.13;0.70;;;;;;;;;;6042826;23;20256;-87
2024/04/05 04:12:49;;;;;;;0.63;0.60;;;;;;;;;;6042364;23;20176;-87
2024/04/05 04:15:19;;;;;;;0.70;0.70;;;;;;;;;;6042236;23;20170;-87
2024/04/05 04:17:45;;;;;;;1.07;0.60;;;;;;;;;;6019185;23;20297;-88
2024/04/05 04:20:12;;;;;;;0.80;0.63;;;;;;;;;;6066170;23;20256;-89
2024/04/05 04:22:38;;;;;;;1.10;0.57;;;;;;;;;;6066214;23;20223;-87
2024/04/05 04:25:05;;;;;;;0.80;0.80;;;;;;;;;;6042370;23;20168;-88
2024/04/05 04:27:31;;;;;;;0.80;0.70;;;;;;;;;;6066231;23;20169;-88
2024/04/05 04:29:58;;;;;;;1.63;1.50;;;;;;;;;;6042514;23;20232;-88
2024/04/05 04:32:26;;;;;;;1.33;1.20;;;;;;;;;;6042060;23;20177;-88
2024/04/05 04:34:52;;;;;;;1.00;0.80;;;;;;;;;;6019009;23;20173;-87
2024/04/05 04:37:20;;;;;;;0.60;0.60;;;;;;;;;;6056739;23;20222;-87
2024/04/05 04:39:47;;;;;;;1.53;0.70;;;;;;;;;;6046776;23;20176;-88
2024/04/05 04:42:14;;;;;;;0.70;0.70;;;;;;;;;;6046865;23;20823;-88
2024/04/05 04:44:40;;;;;;;3.80;1.50;;;;;;;;;;6047257;23;20175;-88
2024/04/05 04:47:07;;;;;;;0.90;0.60;;;;;;;;;;6023181;23;20176;-87
2024/04/05 04:49:36;;;;;;;1.40;0.77;;;;;;;;;;6024332;23;20212;-87
2024/04/05 04:52:02;;;;;;;1.07;0.90;;;;;;;;;;6022989;23;20207;-88
2024/04/05 04:54:31;;;;;;;0.70;0.70;;;;;;;;;;6023255;23;20176;-88
2024/04/05 04:56:59;;;;;;;0.73;0.70;;;;;;;;;;6046835;23;20202;-87
2024/04/05 04:59:28;;;;;;;0.70;0.70;;;;;;;;;;6023088;23;20180;-88
2024/04/05 05:01:59;;;;;;;1.10;0.70;;;;;;;;;;6023198;23;20259;-88
2024/04/05 05:04:29;;;;;;;1.00;0.80;;;;;;;;;;6024850;23;20168;-88
2024/04/05 05:06:55;;;;;;;0.80;0.80;;;;;;;;;;6046897;23;20207;-89
2024/04/05 05:09:21;;;;;;;1.53;0.97;;;;;;;;;;6046749;23;20196;-87
2024/04/05 05:11:47;;;;;;;1.17;0.80;;;;;;;;;;6023141;23;20744;-88
2024/04/05 05:14:15;;;;;;;1.57;0.70;;;;;;;;;;6023254;23;20176;-87
2024/04/05 05:16:41;;;;;;;1.60;0.97;;;;;;;;;;6023179;23;20231;-86
2024/04/05 05:19:07;;;;;;;1.77;1.00;;;;;;;;;;6023241;23;20212;-87
2024/04/05 05:21:38;;;;;;;2.60;0.90;;;;;;;;;;6046268;23;20180;-87
2024/04/05 05:24:04;;;;;;;1.23;0.77;;;;;;;;;;6022765;23;20176;-87
2024/04/05 05:26:30;;;;;;;2.27;1.00;;;;;;;;;;6046133;23;20223;-87
2024/04/05 05:28:56;;;;;;;1.30;0.73;;;;;;;;;;6046034;23;20270;-87
2024/04/05 05:31:22;;;;;;;2.20;0.70;;;;;;;;;;6046552;23;20164;-87
2024/04/05 05:33:49;;;;;;;1.50;1.00;;;;;;;;;;6046996;23;20164;-86
2024/04/05 05:36:21;;;;;;;1.00;0.73;;;;;;;;;;6045895;23;20204;-87
2024/04/05 05:38:48;;;;;;;2.00;0.93;;;;;;;;;;6023234;23;20211;-86
2024/04/05 05:41:15;;;;;;;2.83;0.80;;;;;;;;;;6046308;23;20177;-87
2024/04/05 05:43:45;;;;;;;1.73;1.00;;;;;;;;;;6023097;23;20195;-88
2024/04/05 05:46:11;;;;;;;2.33;1.10;;;;;;;;;;6023007;23;20176;-87
2024/04/05 05:48:40;;;;;;;1.23;0.70;;;;;;;;;;6045979;23;20268;-87
2024/04/05 05:51:09;;;;;;;1.10;0.67;;;;;;;;;;6024064;23;20224;-85
2024/04/05 05:53:36;;;;;;;0.80;0.60;;;;;;;;;;6024538;23;20631;-86
2024/04/05 05:56:03;;;;;;;0.70;0.50;;;;;;;;;;6024312;23;20178;-86
2024/04/05 05:58:29;;;;;;;1.57;0.67;;;;;;;;;;6023336;23;20652;-86
2024/04/05 06:00:55;;;;;;;2.47;1.20;;;;;;;;;;6023754;23;20161;-85
2024/04/05 06:03:21;;;;;;;1.17;0.70;;;;;;;;;;6047071;23;20174;-84
2024/04/05 06:05:51;;;;;;;1.90;0.70;;;;;;;;;;6047524;23;20664;-85
2024/04/05 06:08:19;;;;;;;0.83;0.67;;;;;;;;;;6047932;23;20201;-85
2024/04/05 06:10:55;;;;;;;1.83;0.70;;;;;;;;;;6047869;23;20268;-85
2024/04/05 06:13:23;;;;;;;2.33;0.80;;;;;;;;;;6047412;23;20166;-85
2024/04/05 06:15:53;;;;;;;1.60;0.70;;;;;;;;;;6023481;23;20175;-86
2024/04/05 06:18:19;;;;;;;1.00;0.90;;;;;;;;;;6024300;23;20179;-85
2024/04/05 06:20:52;;;;;;;1.73;0.77;;;;;;;;;;6071269;23;20693;-83
2024/04/05 06:23:19;;;;;;;0.97;0.80;;;;;;;;;;6024554;23;20169;-84
2024/04/05 06:25:56;;;;;;;2.07;0.80;;;;;;;;;;6047206;23;20169;-85
2024/04/05 06:28:24;;;;;;;1.10;0.80;;;;;;;;;;6024717;23;20192;-84
2024/04/05 06:30:51;;;;;;;1.37;0.60;;;;;;;;;;6023726;23;20176;-82
2024/04/05 06:33:17;;;;;;;3.80;0.70;;;;;;;;;;6047750;23;20164;-82
2024/04/05 06:35:43;;;;;;;1.57;0.67;;;;;;;;;;6023979;23;20180;-83
2024/04/05 06:38:09;;;;;;;4.17;0.90;;;;;;;;;;6019075;23;20212;-83
2024/04/05 06:40:39;;;;;;;1.63;0.80;;;;;;;;;;6066573;23;20170;-82
2024/04/05 06:43:07;;;;;;;1.53;0.80;;;;;;;;;;6041570;23;20165;-80
2024/04/05 06:45:34;;;;;;;2.27;0.80;;;;;;;;;;6040782;23;20173;-80
2024/04/05 06:48:02;;;;;;;1.23;0.70;;;;;;;;;;6064597;23;20240;-80
2024/04/05 06:50:32;;;;;;;1.40;0.70;;;;;;;;;;6065121;23;20169;-80
2024/04/05 06:52:58;;;;;;;1.27;0.60;;;;;;;;;;6063167;23;20309;-81
2024/04/05 06:55:24;;;;;;;0.97;0.50;;;;;;;;;;6064011;23;20177;-81
2024/04/05 06:57:52;;;;;;;1.43;0.50;;;;;;;;;;6088210;23;20173;-84
2024/04/05 07:00:21;;;;;;;1.57;0.83;;;;;;;;;;6038826;23;20258;-83
2024/04/05 07:02:47;;;;;;;2.93;0.70;;;;;;;;;;6016289;23;20268;-82
2024/04/05 07:05:14;;;;;;;2.57;0.60;;;;;;;;;;6040695;23;20190;-83
2024/04/05 07:07:39;;;;;;;0.83;0.50;;;;;;;;;;6063926;23;20168;-83
2024/04/05 07:10:07;;;;;;;1.00;0.60;;;;;;;;;;6041162;23;20674;-82
2024/04/05 07:12:34;;;;;;;1.37;0.60;;;;;;;;;;6088444;23;20170;-82
2024/04/05 07:15:00;;;;;;;1.93;0.80;;;;;;;;;;6017966;23;20194;-84
2024/04/05 07:17:26;;;;;;;1.07;0.50;;;;;;;;;;6038509;23;20615;-83
2024/04/05 07:19:52;;;;;;;1.00;0.60;;;;;;;;;;6063607;23;20510;-84
2024/04/05 07:22:19;;;;;;;2.80;0.90;;;;;;;;;;6016062;23;20686;-84
2024/04/05 07:24:45;;;;;;;1.67;0.70;;;;;;;;;;6063809;23;20165;-84
2024/04/05 07:27:11;;;;;;;1.90;0.60;;;;;;;;;;6063677;23;20194;-86
2024/04/05 07:29:38;;;;;;;1.00;0.60;;;;;;;;;;6016239;23;20202;-82
2024/04/05 07:32:04;;;;;;;1.80;0.50;;;;;;;;;;6063421;23;20169;-83
2024/04/05 07:34:34;;;;;;;1.13;0.60;;;;;;;;;;6041510;23;20190;-83
2024/04/05 07:37:00;;;;;;;2.30;0.50;;;;;;;;;;6017434;23;20300;-82
2024/04/05 07:39:28;;;;;;;1.00;0.70;;;;;;;;;;6039825;23;20175;-83
2024/04/05 07:41:54;;;;;;;2.07;0.60;;;;;;;;;;6041352;23;20171;-83
2024/04/05 07:44:20;;;;;;;1.27;0.80;;;;;;;;;;6016835;23;20244;-83
2024/04/05 07:46:47;;;;;;;1.33;0.60;;;;;;;;;;5993155;23;20172;-82
2024/04/05 07:49:13;;;;;;;1.43;0.60;;;;;;;;;;6038738;23;20207;-82
2024/04/05 07:51:42;;;;;;;1.53;0.60;;;;;;;;;;6014136;23;20526;-82
2024/04/05 07:54:08;;;;;;;1.77;0.80;;;;;;;;;;6017311;23;20609;-84
2024/04/05 07:56:34;;;;;;;0.67;0.67;;;;;;;;;;6038411;23;20173;-85
2024/04/05 07:59:00;;;;;;;2.80;0.60;;;;;;;;;;5992820;23;20491;-84
2024/04/05 08:01:27;;;;;;;0.70;0.60;;;;;;;;;;6016707;23;20170;-85
2024/04/05 08:03:53;;;;;;;1.13;0.47;;;;;;;;;;6017345;23;20166;-84
2024/04/05 08:06:20;;;;;;;0.70;0.60;;;;;;;;;;5991983;23;20175;-84
2024/04/05 08:08:47;;;;;;;1.90;0.50;;;;;;;;;;6018465;23;20722;-85
2024/04/05 08:11:14;;;;;;;0.80;0.40;;;;;;;;;;6018075;23;20176;-83
2024/04/05 08:13:42;;;;;;;1.30;0.70;;;;;;;;;;5994231;23;20173;-84
2024/04/05 08:16:08;;;;;;;1.33;0.50;;;;;;;;;;6016876;23;20306;-84
2024/04/05 08:18:36;;;;;;;1.63;0.53;;;;;;;;;;6040952;23;20224;-84
2024/04/05 08:21:04;;;;;;;0.93;0.40;;;;;;;;;;6017713;23;20169;-84
2024/04/05 08:23:30;;;;;;;0.60;0.43;;;;;;;;;;6017215;23;20235;-84
2024/04/05 08:25:56;;;;;;;1.67;0.63;;;;;;;;;;6017024;23;20264;-83
2024/04/05 08:28:23;;;;;;;1.47;0.90;;;;;;;;;;6015496;23;20196;-83
2024/04/05 08:30:52;;;;;;;1.00;0.57;;;;;;;;;;6017484;23;20171;-83
2024/04/05 08:33:18;;;;;;;0.80;0.50;;;;;;;;;;6017562;23;20220;-83
2024/04/05 08:35:51;;;;;;;0.95;0.60;;;;;;;;;;6017105;23;20201;-83
2024/04/05 08:38:18;;;;;;;0.50;0.50;;;;;;;;;;6062382;23;20233;-83
2024/04/05 08:40:45;;;;;;;2.40;0.60;;;;;;;;;;6017617;23;20226;-83
2024/04/05 08:43:16;;;;;;;0.77;0.47;;;;;;;;;;6064289;23;20183;-84
2024/04/05 08:45:46;;;;;;;1.30;0.60;;;;;;;;;;6017877;23;20244;-84
2024/04/05 08:48:16;;;;;;;1.10;0.60;;;;;;;;;;6064364;23;20196;-84
2024/04/05 08:50:43;;;;;;;1.45;0.47;;;;;;;;;;6041115;23;20173;-84
2024/04/05 08:53:11;;;;;;;1.27;0.80;;;;;;;;;;6040871;23;20260;-83
2024/04/05 08:55:38;;;;;;;1.80;0.98;;;;;;;;;;6062795;23;20574;-83
2024/04/05 08:58:13;;;;;;;1.15;0.70;;;;;;;;;;6038779;23;20184;-83
2024/04/05 09:00:39;;;;;;;0.90;0.60;;;;;;;;;;6018267;23;20161;-84
2024/04/05 09:03:05;;;;;;;1.02;0.60;;;;;;;;;;6065021;23;20181;-83
2024/04/05 09:05:32;;;;;;;1.08;0.43;;;;;;;;;;6017802;23;20204;-83
2024/04/05 09:08:02;;;;;;;1.02;0.60;;;;;;;;;;6065311;23;20573;-84
2024/04/05 09:10:29;;;;;;;1.57;0.67;;;;;;;;;;6065389;23;20204;-83
2024/04/05 09:12:57;;;;;;;1.63;0.52;;;;;;;;;;6017926;23;20208;-83
2024/04/05 09:15:28;;;;;;;0.55;0.50;;;;;;;;;;6041280;23;20203;-84
2024/04/05 09:17:55;;;;;;;1.92;0.68;;;;;;;;;;6041671;23;20197;-83
2024/04/05 09:20:24;;;;;;;1.52;0.60;;;;;;;;;;6065077;23;20203;-84
2024/04/05 09:23:02;;;;;;;0.95;0.70;;;;;;;;;;6016164;23;20173;-83
2024/04/05 09:25:30;;;;;;;0.80;0.60;;;;;;;;;;6064774;23;20167;-83
2024/04/05 09:28:06;;;;;;;0.90;0.45;;;;;;;;;;6042026;23;20173;-84
2024/04/05 09:30:34;;;;;;;0.63;0.50;;;;;;;;;;6040837;23;20173;-82
2024/04/05 09:33:01;;;;;;;1.20;0.60;;;;;;;;;;6040813;23;20173;-82
2024/04/05 09:35:28;;;;;;;0.95;0.50;;;;;;;;;;6065033;23;20173;-82
2024/04/05 09:37:55;;;;;;;3.25;0.73;;;;;;;;;;6040510;23;20229;-83
2024/04/05 09:40:25;;;;;;;2.00;0.80;;;;;;;;;;6017492;23;20175;-82
2024/04/05 09:42:53;;;;;;;2.35;0.60;;;;;;;;;;6040942;23;20173;-84
2024/04/05 09:45:25;;;;;;;2.58;0.60;;;;;;;;;;6017253;23;20172;-82
2024/04/05 09:47:52;;;;;;;1.42;0.65;;;;;;;;;;6040932;23;20165;-82
2024/04/05 09:50:21;;;;;;;0.93;0.73;;;;;;;;;;6039697;23;20200;-83
2024/04/05 09:52:51;;;;;;;0.90;0.50;;;;;;;;;;6017096;23;20200;-82
2024/04/05 09:55:28;;;;;;;0.70;0.52;;;;;;;;;;6087646;23;20244;-82
2024/04/05 09:57:55;;;;;;;1.13;0.52;;;;;;;;;;6064333;23;20752;-81
2024/04/05 10:00:23;;;;;;;1.58;0.75;;;;;;;;;;6041663;23;20197;-82
2024/04/05 10:02:59;;;;;;;1.67;0.65;;;;;;;;;;6040669;23;20176;-81
2024/04/05 10:05:32;;;;;;;1.13;0.60;;;;;;;;;;6041797;23;20616;-82
2024/04/05 10:08:09;;;;;;;0.63;0.32;;;;;;;;;;6017760;23;20177;-82
2024/04/05 10:10:36;;;;;;;0.88;0.52;;;;;;;;;;6040503;23;20171;-82
2024/04/05 10:13:11;;;;;;;2.10;0.73;;;;;;;;;;6065228;23;20170;-81
2024/04/05 10:15:54;;;;;;;1.70;0.35;;;;;;;;;;6039478;23;20200;-82
2024/04/05 10:18:24;;;;;;;0.95;0.35;;;;;;;;;;6038867;23;20261;-81
2024/04/05 10:21:01;;;;;;;1.63;0.47;;;;;;;;;;6064869;23;20164;-82
2024/04/05 10:23:27;;;;;;;2.50;0.60;;;;;;;;;;6017213;23;20212;-82
2024/04/05 10:25:53;;;;;;;1.38;0.50;;;;;;;;;;6064572;23;20172;-83
2024/04/05 10:28:22;;;;;;;0.40;0.40;;;;;;;;;;6040432;23;20220;-82
2024/04/05 10:30:50;;;;;;;0.47;0.40;;;;;;;;;;6064448;23;20183;-81
2024/04/05 10:33:18;;;;;;;1.25;0.50;;;;;;;;;;6017301;23;20176;-81
2024/04/05 10:35:48;;;;;;;0.50;0.50;;;;;;;;;;6064561;23;20167;-81
2024/04/05 10:38:16;;;;;;;1.38;0.50;;;;;;;;;;6065634;23;20264;-83
2024/04/05 10:40:58;;;;;;;0.80;0.60;;;;;;;;;;6043572;23;20173;-82
2024/04/05 10:43:25;;;;;;;1.52;0.50;;;;;;;;;;6066473;23;20165;-83
2024/04/05 10:45:58;;;;;;;0.75;0.50;;;;;;;;;;6065995;23;20686;-83
2024/04/05 10:48:29;;;;;;;0.70;0.40;;;;;;;;;;6065660;23;20224;-82
2024/04/05 10:50:58;;;;;;;0.70;0.60;;;;;;;;;;6042468;23;20627;-81
2024/04/05 10:53:29;;;;;;;0.70;0.60;;;;;;;;;;6019375;23;20180;-82
2024/04/05 10:56:01;;;;;;;0.60;0.60;;;;;;;;;;6066026;23;20243;-81
2024/04/05 10:58:28;;;;;;;1.23;0.90;;;;;;;;;;6042108;23;20180;-82
2024/04/05 11:01:01;;;;;;;1.00;0.90;;;;;;;;;;6044082;23;20153;-81
2024/04/05 11:03:28;;;;;;;0.77;0.77;;;;;;;;;;6042302;23;20265;-81
2024/04/05 11:06:01;;;;;;;0.75;0.75;;;;;;;;;;6018744;23;20639;-82
2024/04/05 11:08:27;;;;;;;0.70;0.65;;;;;;;;;;6042051;23;20185;-82
2024/04/05 11:10:55;;;;;;;2.70;0.77;;;;;;;;;;6042777;23;20173;-81
2024/04/05 11:13:22;;;;;;;1.00;0.70;;;;;;;;;;6041891;23;20192;-82
2024/04/05 11:15:58;;;;;;;1.10;0.90;;;;;;;;;;6019116;23;20172;-81
2024/04/05 11:18:25;;;;;;;1.38;0.80;;;;;;;;;;6042169;23;20180;-82
2024/04/05 11:20:51;;;;;;;1.15;0.82;;;;;;;;;;6018876;23;20166;-81
2024/04/05 11:23:21;;;;;;;1.38;0.60;;;;;;;;;;6066332;23;20259;-81
2024/04/05 11:25:56;;;;;;;1.80;0.60;;;;;;;;;;6042564;23;20199;-82
2024/04/05 11:28:26;;;;;;;0.60;0.60;;;;;;;;;;6042342;23;20195;-81
2024/04/05 11:30:52;;;;;;;0.75;0.55;;;;;;;;;;6042969;23;20177;-82
2024/04/05 11:33:18;;;;;;;1.05;0.63;;;;;;;;;;6042505;23;20176;-82
2024/04/05 11:35:48;;;;;;;1.23;0.80;;;;;;;;;;6020183;23;20211;-81
2024/04/05 11:38:15;;;;;;;1.30;0.75;;;;;;;;;;6065703;23;20201;-83
2024/04/05 11:40:42;;;;;;;0.70;0.60;;;;;;;;;;6019084;23;20216;-82
2024/04/05 11:43:12;;;;;;;0.95;0.60;;;;;;;;;;6042351;23;20173;-83
2024/04/05 11:45:39;;;;;;;0.90;0.65;;;;;;;;;;6019315;23;20161;-82
2024/04/05 11:48:06;;;;;;;0.77;0.70;;;;;;;;;;6018263;23;20180;-83
2024/04/05 11:50:35;;;;;;;0.68;0.60;;;;;;;;;;6066127;23;20248;-82
2024/04/05 11:53:02;;;;;;;0.90;0.75;;;;;;;;;;6018513;23;20173;-82
2024/04/05 11:55:28;;;;;;;1.38;0.70;;;;;;;;;;6042371;23;20172;-82
2024/04/05 11:57:55;;;;;;;0.60;0.60;;;;;;;;;;6018607;23;20177;-82
2024/04/05 12:00:21;;;;;;;1.50;0.80;;;;;;;;;;6042043;23;20243;-83
2024/04/05 12:02:47;;;;;;;1.05;0.60;;;;;;;;;;6041993;23;20617;-82
2024/04/05 12:05:13;;;;;;;0.55;0.55;;;;;;;;;;6019034;23;20247;-82
2024/04/05 12:07:40;;;;;;;1.25;0.70;;;;;;;;;;6041767;23;20259;-82
2024/04/05 12:10:10;;;;;;;0.82;0.63;;;;;;;;;;6042432;23;20200;-82
2024/04/05 12:12:36;;;;;;;1.27;0.60;;;;;;;;;;6017321;23;20264;-82
2024/04/05 12:15:03;;;;;;;1.45;0.80;;;;;;;;;;6065174;23;20169;-82
2024/04/05 12:17:30;;;;;;;0.98;0.60;;;;;;;;;;6041443;23;20175;-82
2024/04/05 12:19:56;;;;;;;1.15;0.70;;;;;;;;;;6018094;23;20204;-83
2024/04/05 12:22:23;;;;;;;1.00;0.68;;;;;;;;;;6065023;23;20620;-82
2024/04/05 12:24:50;;;;;;;0.90;0.60;;;;;;;;;;6041636;23;20183;-82
2024/04/05 12:27:18;;;;;;;1.38;0.68;;;;;;;;;;6018365;23;20263;-82
2024/04/05 12:29:48;;;;;;;0.95;0.65;;;;;;;;;;6041547;23;20664;-83
2024/04/05 12:32:16;;;;;;;0.77;0.60;;;;;;;;;;6065510;23;20262;-84
2024/04/05 12:34:56;;;;;;;;;;;;;;;;;;;;;
2024/04/05 12:37:25;;;;;;;1.77;0.60;;;;;;;;;;6040644;23;20643;-82
2024/04/05 12:40:00;;;;;;;0.75;0.70;;;;;;;;;;6017808;23;20200;-82
2024/04/05 12:42:26;;;;;;;1.40;0.65;;;;;;;;;;6064121;23;20180;-81
2024/04/05 12:44:52;;;;;;;0.90;0.70;;;;;;;;;;6018018;23;20252;-82
2024/04/05 12:47:19;;;;;;;0.70;0.65;;;;;;;;;;6040952;23;20177;-81
2024/04/05 12:49:45;;;;;;;1.45;0.60;;;;;;;;;;6063346;23;20205;-82
2024/04/05 12:52:14;;;;;;;1.00;0.60;;;;;;;;;;6017874;23;20259;-82
2024/04/05 12:54:42;;;;;;;0.90;0.52;;;;;;;;;;6041474;23;20177;-83
2024/04/05 12:57:08;;;;;;;0.60;0.55;;;;;;;;;;6018112;23;20253;-81
2024/04/05 12:59:36;;;;;;;1.42;0.85;;;;;;;;;;6018063;23;20170;-81
2024/04/05 13:02:10;;;;;;;1.90;0.80;;;;;;;;;;6064314;23;20554;-81
2024/04/05 13:04:37;;;;;;;3.72;1.02;;;;;;;;;;6041146;23;20262;-82
2024/04/05 13:07:04;;;;;;;0.90;0.60;;;;;;;;;;6016770;23;20179;-82
2024/04/05 13:09:34;;;;;;;0.77;0.70;;;;;;;;;;6064680;23;20236;-81
2024/04/05 13:12:03;;;;;;;2.28;0.70;;;;;;;;;;6040822;23;20264;-81
2024/04/05 13:14:30;;;;;;;2.08;0.90;;;;;;;;;;6064879;23;20165;-81
2024/04/05 13:16:56;;;;;;;1.05;0.80;;;;;;;;;;6015698;23;20252;-81
2024/04/05 13:19:23;;;;;;;0.55;0.55;;;;;;;;;;6062424;23;20248;-81
2024/04/05 13:21:49;;;;;;;1.23;0.70;;;;;;;;;;6064881;23;20624;-82
2024/04/05 13:24:15;;;;;;;0.80;0.80;;;;;;;;;;6017117;23;20211;-81
2024/04/05 13:26:45;;;;;;;1.15;0.60;;;;;;;;;;6041360;23;20204;-81
2024/04/05 13:29:12;;;;;;;1.75;0.90;;;;;;;;;;6064607;23;20685;-81
2024/04/05 13:31:38;;;;;;;1.52;0.80;;;;;;;;;;6041213;23;20171;-81
2024/04/05 13:34:09;;;;;;;1.23;0.80;;;;;;;;;;6040767;23;20169;-81
2024/04/05 13:36:37;;;;;;;1.20;0.70;;;;;;;;;;6040923;23;20201;-82
2024/04/05 13:39:09;;;;;;;1.30;0.80;;;;;;;;;;6018099;23;20190;-82
2024/04/05 13:41:36;;;;;;;2.83;0.80;;;;;;;;;;6065124;23;20184;-82
2024/04/05 13:44:03;;;;;;;0.70;0.70;;;;;;;;;;6017510;23;20184;-82
2024/04/05 13:46:29;;;;;;;0.90;0.70;;;;;;;;;;6041008;23;20224;-82
2024/04/05 13:48:55;;;;;;;0.95;0.60;;;;;;;;;;6064323;23;20220;-82
2024/04/05 13:51:26;;;;;;;2.65;0.70;;;;;;;;;;6041370;23;20264;-83
2024/04/05 13:53:56;;;;;;;1.67;0.73;;;;;;;;;;6040523;23;20251;-82
2024/04/05 13:56:24;;;;;;;2.17;0.75;;;;;;;;;;6017344;23;20172;-82
2024/04/05 13:58:49;;;;;;;1.38;0.60;;;;;;;;;;6064303;23;20255;-81
2024/04/05 14:01:23;;;;;;;0.85;0.70;;;;;;;;;;6064428;23;20601;-81
2024/04/05 14:03:52;;;;;;;1.50;0.80;;;;;;;;;;6064270;23;20164;-81
2024/04/05 14:06:20;;;;;;;3.00;0.70;;;;;;;;;;6040206;23;20180;-80
2024/04/05 14:08:49;;;;;;;1.05;0.85;;;;;;;;;;6017035;23;20180;-81
2024/04/05 14:11:16;;;;;;;2.28;0.80;;;;;;;;;;6064342;23;20173;-80
2024/04/05 14:16:33;;;;;;;1.00;0.90;;;;;;;;;;6066498;23;20173;-81
2024/04/05 14:19:05;;;;;;;2.40;0.65;;;;;;;;;;6021408;23;20165;-80
2024/04/05 14:21:32;;;;;;;0.95;0.60;;;;;;;;;;6066768;23;20226;-81
2024/04/05 14:24:04;;;;;;;2.13;0.95;;;;;;;;;;6043200;23;20164;-80
2024/04/05 14:26:31;;;;;;;0.82;0.60;;;;;;;;;;6066521;23;20176;-81
2024/04/05 14:28:57;;;;;;;1.58;0.80;;;;;;;;;;6042164;23;20204;-82
2024/04/05 14:31:26;;;;;;;1.15;0.73;;;;;;;;;;6042677;23;20176;-81
2024/04/05 14:33:55;;;;;;;1.20;0.60;;;;;;;;;;6089765;23;20196;-81
2024/04/05 14:36:22;;;;;;;1.23;0.90;;;;;;;;;;6021862;23;20177;-81
2024/04/05 14:38:48;;;;;;;1.42;0.70;;;;;;;;;;6023453;23;20244;-81
2024/04/05 14:41:15;;;;;;;0.95;0.60;;;;;;;;;;6047583;23;20176;-82
2024/04/05 14:43:45;;;;;;;0.85;0.60;;;;;;;;;;6046531;23;20258;-80
2024/04/05 14:46:17;;;;;;;1.10;0.68;;;;;;;;;;6023604;23;20894;-80
2024/04/05 14:48:44;;;;;;;1.02;0.60;;;;;;;;;;6023536;23;20275;-80
2024/04/05 14:51:13;;;;;;;0.90;0.60;;;;;;;;;;6023619;23;20196;-81